Time;durP1;ratioP1;P1;durP2;ratioP2;P2;SDS_P1;SDS_P2;PMS_P1;PMS_P2;Temp;Humidity;BMP_temperature;BMP_pressure;BME280_temperature;BME280_humidity;BME280_pressure;Samples;Min_cycle;Max_cycle;Signal;HPM_P1;HPM_P2
2022/10/19 05:36:48;;;;;;;;;;;;;;;17.53;68.19;97564.38;4226087;27;10230;-77
2022/10/19 05:38:52;;;;;;;;;;;;;;;17.81;67.72;97563.97;4227906;28;5671;-76
2022/10/19 05:40:55;;;;;;;;;;;;;;;18.01;67.06;97559.25;4229872;28;5660;-74
2022/10/19 05:43:00;;;;;;;;;;;;;;;18.17;66.69;97561.31;4231359;28;5955;-77
2022/10/19 05:45:04;;;;;;;;;;;;;;;18.30;66.45;97563.03;4231128;28;5849;-76
2022/10/19 05:47:07;;;;;;;;;;;;;;;18.41;66.12;97558.78;4227290;28;5090;-76
2022/10/19 05:49:11;;;;;;;;;;;;;;;18.49;66.17;97564.66;4227118;28;6653;-76
2022/10/19 05:51:17;;;;;;;;;;;;;;;18.57;65.77;97558.16;4229755;28;5669;-76
2022/10/19 05:53:33;;;;;;;;;;;;;;;18.65;65.76;97557.91;4228886;28;6562;-76
2022/10/19 05:55:36;;;;;;;;;;;;;;;18.70;65.56;97557.25;4228284;28;5778;-76
2022/10/19 05:57:39;;;;;;;;;;;;;;;18.74;65.17;97558.41;4229574;28;5797;-75
2022/10/19 05:59:44;;;;;;;;;;;;;;;18.78;65.28;97551.56;4227043;28;5691;-76
2022/10/19 06:01:48;;;;;;;;;;;;;;;18.82;65.18;97560.78;4230020;28;5776;-76
2022/10/19 06:03:52;;;;;;;;;;;;;;;18.84;64.84;97558.69;4229275;28;5676;-76
2022/10/19 06:05:56;;;;;;;;;;;;;;;18.85;64.65;97561.16;4229120;28;5683;-75
2022/10/19 06:07:59;;;;;;;;;;;;;;;18.88;64.53;97557.19;4229529;28;5735;-78
2022/10/19 06:10:04;;;;;;;;;;;;;;;18.88;64.69;97560.69;4229334;28;5668;-77
2022/10/19 06:12:07;;;;;;;;;;;;;;;18.88;64.62;97554.50;4228906;28;5672;-77
2022/10/19 06:14:13;;;;;;;;;;;;;;;18.88;64.43;97559.88;4228902;28;5672;-77
2022/10/19 06:16:18;;;;;;;;;;;;;;;18.88;64.32;97565.22;4227721;28;5794;-76
2022/10/19 06:18:24;;;;;;;;;;;;;;;18.91;64.16;97559.41;4226173;28;7457;-77
2022/10/19 06:20:28;;;;;;;;;;;;;;;18.96;64.18;97561.41;4229518;28;5834;-77
2022/10/19 06:22:31;;;;;;;;;;;;;;;18.99;64.15;97560.94;4228924;28;5766;-77
2022/10/19 06:24:34;;;;;;;;;;;;;;;19.01;63.89;97562.34;4228309;28;5680;-76
2022/10/19 06:26:41;;;;;;;;;;;;;;;19.03;64.04;97562.97;4229122;28;5783;-75
2022/10/19 06:28:48;;;;;;;;;;;;;;;19.04;63.90;97564.59;4223525;28;5671;-77
2022/10/19 06:30:56;;;;;;;;;;;;;;;19.07;63.92;97566.81;4228816;28;6341;-77
2022/10/19 06:33:02;;;;;;;;;;;;;;;19.08;63.80;97564.94;4228760;28;5683;-77
2022/10/19 06:35:10;;;;;;;;;;;;;;;19.08;63.79;97564.94;4225335;28;5668;-77
2022/10/19 06:37:13;;;;;;;;;;;;;;;19.07;63.58;97564.13;4220823;28;5821;-76
2022/10/19 06:39:19;;;;;;;;;;;;;;;19.10;63.79;97555.63;4217745;28;5948;-76
2022/10/19 06:41:22;;;;;;;;;;;;;;;19.11;63.45;97548.41;4215777;28;5867;-75
2022/10/19 06:43:27;;;;;;;;;;;;;;;19.13;63.52;97557.84;4216584;28;5888;-71
2022/10/19 06:45:31;;;;;;;;;;;;;;;19.15;63.17;97554.97;4215583;28;5739;-72
2022/10/19 06:47:37;;;;;;;;;;;;;;;19.15;63.27;97555.78;4216164;28;6631;-70
2022/10/19 06:49:40;;;;;;;;;;;;;;;19.16;63.31;97557.41;4215293;28;5788;-71
2022/10/19 06:51:43;;;;;;;;;;;;;;;19.17;63.25;97558.22;4215152;28;6127;-70
2022/10/19 06:53:47;;;;;;;;;;;;;;;19.17;62.97;97561.72;4214690;28;7707;-70
2022/10/19 06:55:57;;;;;;;;;;;;;;;19.20;63.10;97563.94;4209184;28;6443;-70
2022/10/19 06:58:01;;;;;;;;;;;;;;;19.23;62.99;97572.56;4216206;28;5760;-70
2022/10/19 07:00:06;;;;;;;;;;;;;;;19.24;63.00;97574.19;4217141;28;5113;-71
2022/10/19 07:02:11;;;;;;;;;;;;;;;19.26;62.85;97572.13;4216114;28;5680;-71
2022/10/19 07:04:15;;;;;;;;;;;;;;;19.26;62.70;97566.75;4212228;28;5709;-71
2022/10/19 07:06:18;;;;;;;;;;;;;;;19.27;62.83;97579.94;4214304;28;5739;-71
2022/10/19 07:08:21;;;;;;;;;;;;;;;19.29;62.63;97582.38;4210467;28;5687;-70
2022/10/19 07:10:24;;;;;;;;;;;;;;;19.30;62.55;97579.47;4216150;28;5840;-71
2022/10/19 07:12:27;;;;;;;;;;;;;;;19.31;62.81;97574.91;4224694;28;5820;-71
2022/10/19 07:14:37;;;;;;;;;;;;;;;19.33;62.61;97575.50;4211309;28;5823;-71
2022/10/19 07:16:42;;;;;;;;;;;;;;;19.34;62.77;97575.28;4216968;28;5913;-70
2022/10/19 07:18:45;;;;;;;;;;;;;;;19.36;62.46;97573.16;4217312;28;5830;-70
2022/10/19 07:20:54;;;;;;;;;;;;;;;19.39;62.26;97563.88;4216196;28;5680;-72
2022/10/19 07:22:57;;;;;;;;;;;;;;;19.40;62.51;97562.81;4215619;28;5876;-71
2022/10/19 07:25:01;;;;;;;;;;;;;;;19.42;62.16;97558.03;4216618;28;5787;-71
2022/10/19 07:27:04;;;;;;;;;;;;;;;19.42;62.22;97564.22;4213254;28;5688;-71
2022/10/19 07:29:07;;;;;;;;;;;;;;;19.45;62.21;97554.88;4216126;28;5763;-70
2022/10/19 07:31:11;;;;;;;;;;;;;;;19.46;61.98;97561.88;4215929;28;5684;-71
2022/10/19 07:33:24;;;;;;;;;;;;;;;19.48;62.01;97557.13;4218337;28;5667;-70
2022/10/19 07:35:27;;;;;;;;;;;;;;;19.49;62.08;97564.94;4217478;28;5656;-71
2022/10/19 07:37:30;;;;;;;;;;;;;;;19.51;62.13;97572.75;4217169;28;5105;-70
2022/10/19 07:39:33;;;;;;;;;;;;;;;19.52;62.10;97569.03;4214931;28;5770;-71
2022/10/19 07:41:36;;;;;;;;;;;;;;;19.54;61.84;97569.59;4208717;28;5688;-70
2022/10/19 07:43:40;;;;;;;;;;;;;;;19.55;61.86;97571.25;4215586;28;5672;-70
2022/10/19 07:45:43;;;;;;;;;;;;;;;19.56;61.90;97567.53;4216795;28;5680;-70
2022/10/19 07:47:45;;;;;;;;;;;;;;;19.57;62.00;97569.16;4216546;28;5750;-70
2022/10/19 07:49:50;;;;;;;;;;;;;;;19.59;61.83;97567.06;4215527;28;5672;-71
2022/10/19 07:51:54;;;;;;;;;;;;;;;19.60;62.07;97568.72;4218299;28;5679;-70
2022/10/19 07:53:58;;;;;;;;;;;;;;;19.60;61.92;97563.34;4217482;28;5676;-71
2022/10/19 07:56:03;;;;;;;;;;;;;;;19.64;61.83;97574.44;4216742;28;5739;-71
2022/10/19 07:58:06;;;;;;;;;;;;;;;19.64;61.63;97574.44;4216248;28;5850;-70
2022/10/19 08:00:11;;;;;;;;;;;;;;;19.65;61.82;97570.69;4217211;28;5853;-70
2022/10/19 08:02:16;;;;;;;;;;;;;;;19.65;61.71;97574.19;4209845;28;5693;-70
2022/10/19 08:04:19;;;;;;;;;;;;;;;19.66;61.52;97581.19;4218226;28;5850;-70
2022/10/19 08:06:44;;;;;;;;;;;;;;;19.69;61.51;97580.72;4215821;28;5661;-70
2022/10/19 08:08:47;;;;;;;;;;;;;;;19.69;61.62;97583.41;4216845;28;5073;-71
2022/10/19 08:10:50;;;;;;;;;;;;;;;19.70;61.62;97574.31;4216321;28;5688;-71
2022/10/19 08:12:54;;;;;;;;;;;;;;;19.70;61.48;97579.66;4216067;28;6306;-70
2022/10/19 08:14:57;;;;;;;;;;;;;;;19.72;61.21;97561.50;4214245;28;5232;-70
2022/10/19 08:17:00;;;;;;;;;;;;;;;19.76;61.28;97562.66;4216002;28;5672;-71
2022/10/19 08:19:06;;;;;;;;;;;;;;;19.78;61.17;97562.41;4216682;28;6396;-70
2022/10/19 08:21:10;;;;;;;;;;;;;;;19.80;61.12;97564.88;4211380;28;5798;-70
2022/10/19 08:23:14;;;;;;;;;;;;;;;19.82;60.96;97560.06;4216802;28;5680;-70
2022/10/19 08:25:17;;;;;;;;;;;;;;;19.84;61.14;97552.63;4216733;28;5727;-70
2022/10/19 08:27:21;;;;;;;;;;;;;;;19.86;61.17;97545.97;4216255;28;5679;-70
2022/10/19 08:29:24;;;;;;;;;;;;;;;19.87;61.04;97536.06;4216447;28;5671;-70
2022/10/19 08:31:32;;;;;;;;;;;;;;;19.88;61.02;97537.69;4215760;28;5141;-70
2022/10/19 08:33:35;;;;;;;;;;;;;;;19.90;61.00;97535.59;4216233;28;5770;-70
2022/10/19 08:35:37;;;;;;;;;;;;;;;19.93;60.78;97541.31;4214124;28;5883;-70
2022/10/19 08:37:40;;;;;;;;;;;;;;;19.93;60.77;97529.75;4216575;28;5688;-71
2022/10/19 08:39:48;;;;;;;;;;;;;;;19.96;60.87;97537.34;4210502;28;5702;-71
2022/10/19 08:42:00;;;;;;;;;;;;;;;19.99;60.76;97542.22;4215568;28;5808;-70
2022/10/19 08:44:21;;;;;;;;;;;;;;;20.00;60.71;97549.22;4215156;28;5857;-71
2022/10/19 08:46:32;;;;;;;;;;;;;;;20.01;60.70;97542.81;4215505;28;5795;-71
2022/10/19 08:48:41;;;;;;;;;;;;;;;20.00;60.95;97541.19;4214050;28;5832;-71
2022/10/19 08:50:45;;;;;;;;;;;;;;;20.00;60.67;97535.81;4216602;28;5687;-71
2022/10/19 08:52:55;;;;;;;;;;;;;;;20.01;60.70;97535.56;4209660;28;5894;-71
2022/10/19 08:55:03;;;;;;;;;;;;;;;20.02;60.52;97529.16;4217151;28;5886;-71
2022/10/19 08:57:24;;;;;;;;;;;;;;;20.02;60.88;97534.53;4215422;28;5675;-71
2022/10/19 08:59:33;;;;;;;;;;;;;;;20.02;60.55;97531.03;4215499;28;5759;-71
2022/10/19 09:01:42;;;;;;;;;;;;;;;20.05;60.46;97525.22;4210157;28;7491;-71
2022/10/19 09:03:49;;;;;;;;;;;;;;;20.08;60.70;97529.28;4215529;28;5667;-70
2022/10/19 09:06:05;;;;;;;;;;;;;;;20.09;60.42;97528.22;4214752;28;5791;-71
2022/10/19 09:08:09;;;;;;;;;;;;;;;20.09;60.48;97523.69;4215493;28;5664;-71
2022/10/19 09:10:25;;;;;;;;;;;;;;;20.10;60.43;97524.50;4216240;28;5791;-70
2022/10/19 09:12:37;;;;;;;;;;;;;;;20.13;60.67;97534.75;4213595;28;5672;-70
2022/10/19 09:14:47;;;;;;;;;;;;;;;20.13;60.08;97530.19;4216059;28;5680;-70
2022/10/19 09:16:50;;;;;;;;;;;;;;;20.13;60.55;97529.38;4215826;28;6486;-70
2022/10/19 09:18:53;;;;;;;;;;;;;;;20.13;60.39;97522.13;4215483;28;5830;-71
2022/10/19 09:21:05;;;;;;;;;;;;;;;20.13;60.13;97516.78;4213756;28;5767;-71
2022/10/19 09:23:20;;;;;;;;;;;;;;;20.15;60.28;97517.34;4215771;28;5806;-71
2022/10/19 09:25:25;;;;;;;;;;;;;;;20.18;60.28;97516.06;4213472;28;5660;-71
2022/10/19 09:27:33;;;;;;;;;;;;;;;20.17;60.11;97523.31;4216438;28;5742;-71
2022/10/19 09:29:42;;;;;;;;;;;;;;;20.18;60.25;97519.56;4215872;28;5807;-70
2022/10/19 09:31:45;;;;;;;;;;;;;;;20.18;60.14;97516.91;4214410;28;5696;-71
2022/10/19 09:33:54;;;;;;;;;;;;;;;20.19;60.38;97523.88;4212023;28;5791;-71
2022/10/19 09:35:59;;;;;;;;;;;;;;;20.20;60.01;97519.34;4213630;28;6444;-71
2022/10/19 09:38:05;;;;;;;;;;;;;;;20.20;60.35;97522.84;4212510;28;6786;-71
2022/10/19 09:40:15;;;;;;;;;;;;;;;20.20;60.04;97519.34;4216094;28;6575;-71
2022/10/19 09:42:22;;;;;;;;;;;;;;;20.20;60.10;97509.41;4215657;28;5668;-71
2022/10/19 09:44:26;;;;;;;;;;;;;;;20.20;59.94;97501.34;4211838;28;5754;-71
2022/10/19 09:46:50;;;;;;;;;;;;;;;20.20;60.05;97501.34;4214288;28;5811;-71
2022/10/19 09:48:53;;;;;;;;;;;;;;;20.23;60.13;97500.88;4215831;28;5672;-71
2022/10/19 09:50:59;;;;;;;;;;;;;;;20.26;59.81;97496.91;4215574;28;6369;-71
2022/10/19 09:53:05;;;;;;;;;;;;;;;20.29;60.01;97502.63;4216451;28;5755;-71
2022/10/19 09:55:23;;;;;;;;;;;;;;;20.32;59.97;97496.78;4208881;28;5668;-70
2022/10/19 09:57:27;;;;;;;;;;;;;;;20.37;60.14;97496.03;4214767;28;5696;-71
2022/10/19 09:59:33;;;;;;;;;;;;;;;20.38;59.88;97488.81;4215655;28;5731;-71
2022/10/19 10:01:37;;;;;;;;;;;;;;;20.40;59.97;97486.72;4216199;28;5790;-71
2022/10/19 10:03:50;;;;;;;;;;;;;;;20.43;59.65;97497.00;4215506;28;5668;-71
2022/10/19 10:06:02;;;;;;;;;;;;;;;20.44;60.01;97488.72;4212482;28;6458;-71
2022/10/19 10:08:13;;;;;;;;;;;;;;;20.47;59.87;97490.09;4206220;28;5697;-71
2022/10/19 10:10:22;;;;;;;;;;;;;;;20.50;59.57;97495.81;4216081;28;5664;-71
2022/10/19 10:12:35;;;;;;;;;;;;;;;20.54;59.56;97504.22;4216164;28;5703;-71
2022/10/19 10:14:38;;;;;;;;;;;;;;;20.58;59.61;97508.03;4219129;28;5795;-71
2022/10/19 10:16:41;;;;;;;;;;;;;;;20.57;59.78;97504.53;4217830;28;5754;-71
2022/10/19 10:18:54;;;;;;;;;;;;;;;20.58;59.72;97500.78;4218877;28;6365;-71
2022/10/19 10:21:00;;;;;;;;;;;;;;;20.60;59.70;97503.25;4218777;28;5728;-70
2022/10/19 10:23:05;;;;;;;;;;;;;;;20.61;59.84;97497.66;4218188;28;5669;-70
2022/10/19 10:25:13;;;;;;;;;;;;;;;20.62;59.79;97493.09;4212924;28;6391;-70
2022/10/19 10:27:30;;;;;;;;;;;;;;;20.62;59.95;97490.41;4216628;28;7895;-70
2022/10/19 10:29:36;;;;;;;;;;;;;;;20.62;59.65;97487.72;4216824;28;5234;-70
2022/10/19 10:31:42;;;;;;;;;;;;;;;20.58;59.86;97483.88;4217217;28;6789;-70
2022/10/19 10:33:54;;;;;;;;;;;;;;;20.58;59.83;97495.41;4212552;28;5786;-70
2022/10/19 10:36:03;;;;;;;;;;;;;;;20.56;59.87;97485.97;4216706;28;5758;-70
2022/10/19 10:38:09;;;;;;;;;;;;;;;20.57;60.04;97488.41;4216792;28;5819;-71
2022/10/19 10:40:21;;;;;;;;;;;;;;;20.59;60.05;97483.63;4218015;28;5663;-70
2022/10/19 10:42:33;;;;;;;;;;;;;;;20.62;60.37;97479.66;4217920;28;5837;-70
2022/10/19 10:44:47;;;;;;;;;;;;;;;20.64;60.05;97477.53;4215704;28;5687;-70
2022/10/19 10:46:55;;;;;;;;;;;;;;;20.66;60.39;97480.81;4211526;28;5829;-70
2022/10/19 10:49:00;;;;;;;;;;;;;;;20.67;60.29;97476.25;4218153;28;6463;-70
2022/10/19 10:51:07;;;;;;;;;;;;;;;20.67;60.16;97469.00;4218606;28;5675;-70
2022/10/19 10:53:32;;;;;;;;;;;;;;;20.67;60.23;97463.63;4217195;28;5731;-71
2022/10/19 10:55:35;;;;;;;;;;;;;;;20.68;60.22;97461.75;4217805;28;5668;-71
2022/10/19 10:57:41;;;;;;;;;;;;;;;20.66;60.08;97456.63;4211697;28;5780;-71
2022/10/19 10:59:54;;;;;;;;;;;;;;;20.66;60.21;97453.94;4208908;28;5842;-71
2022/10/19 11:02:02;;;;;;;;;;;;;;;20.67;59.75;97450.19;4217539;28;5981;-70
2022/10/19 11:04:08;;;;;;;;;;;;;;;20.67;59.84;97458.25;4217868;28;5755;-71
2022/10/19 11:06:12;;;;;;;;;;;;;;;20.68;59.91;97451.81;4212423;28;5707;-71
2022/10/19 11:08:22;;;;;;;;;;;;;;;20.66;59.63;97453.94;4216326;28;5772;-71
2022/10/19 11:10:30;;;;;;;;;;;;;;;20.64;59.70;97439.94;4218191;28;6369;-70
2022/10/19 11:12:37;;;;;;;;;;;;;;;20.66;59.78;97435.13;4214472;28;5754;-70
2022/10/19 11:14:49;;;;;;;;;;;;;;;20.69;59.66;97440.00;4209190;28;5727;-70
2022/10/19 11:16:55;;;;;;;;;;;;;;;20.68;59.33;97435.69;4214909;28;5736;-70
2022/10/19 11:19:06;;;;;;;;;;;;;;;20.67;59.45;97428.69;4217418;28;5738;-70
2022/10/19 11:21:12;;;;;;;;;;;;;;;20.67;59.68;97436.75;4216919;28;5794;-70
2022/10/19 11:23:23;;;;;;;;;;;;;;;20.68;59.62;97427.63;4216742;28;5660;-71
2022/10/19 11:25:35;;;;;;;;;;;;;;;20.66;59.31;97427.06;4215675;28;5657;-70
2022/10/19 11:27:50;;;;;;;;;;;;;;;20.67;59.28;97428.69;4214244;28;5696;-70
2022/10/19 11:30:08;;;;;;;;;;;;;;;20.68;59.45;97424.94;4215751;28;5778;-70
2022/10/19 11:32:20;;;;;;;;;;;;;;;20.68;58.86;97414.22;4212399;28;5679;-70
2022/10/19 11:34:37;;;;;;;;;;;;;;;20.68;59.06;97408.84;4217994;28;5684;-70
2022/10/19 11:36:51;;;;;;;;;;;;;;;20.70;59.05;97395.16;4211833;28;5782;-70
2022/10/19 11:39:03;;;;;;;;;;;;;;;20.72;58.59;97391.16;4216641;28;5974;-70
2022/10/19 11:41:16;;;;;;;;;;;;;;;20.74;59.04;97382.88;4214176;28;5938;-71
2022/10/19 11:43:32;;;;;;;;;;;;;;;20.74;58.66;97390.94;4210596;28;5697;-70
2022/10/19 11:45:47;;;;;;;;;;;;;;;20.73;58.74;97379.38;4210334;28;5747;-71
2022/10/19 11:48:09;;;;;;;;;;;;;;;20.75;58.87;97385.31;4215091;28;5692;-70
2022/10/19 11:50:27;;;;;;;;;;;;;;;20.76;58.31;97376.19;4214516;28;5842;-70
2022/10/19 11:52:45;;;;;;;;;;;;;;;20.75;58.46;97371.06;4210244;28;5894;-70
2022/10/19 11:55:03;;;;;;;;;;;;;;;20.73;58.43;97363.25;4212986;28;5767;-70
2022/10/19 11:57:12;;;;;;;;;;;;;;;20.76;58.13;97368.13;4215651;28;5758;-70
2022/10/19 11:59:23;;;;;;;;;;;;;;;20.77;58.43;97364.41;4214101;28;6349;-70
2022/10/19 12:01:41;;;;;;;;;;;;;;;20.76;58.24;97346.66;4209038;28;5094;-71
2022/10/19 12:04:16;;;;;;;;;;;;;;;20.79;58.28;97356.09;4206646;28;5889;-71
2022/10/19 12:06:25;;;;;;;;;;;;;;;20.78;57.88;97349.09;4214707;28;5725;-71
2022/10/19 12:08:42;;;;;;;;;;;;;;;20.79;57.76;97356.91;4215546;28;5696;-71
2022/10/19 12:10:57;;;;;;;;;;;;;;;20.80;57.79;97352.34;4211882;28;5664;-71
2022/10/19 12:13:04;;;;;;;;;;;;;;;20.81;57.72;97348.59;4211673;28;5675;-71
2022/10/19 12:15:20;;;;;;;;;;;;;;;20.82;57.82;97344.84;4212376;28;5823;-71
2022/10/19 12:17:29;;;;;;;;;;;;;;;20.84;57.48;97340.88;4212136;28;5822;-71
2022/10/19 12:19:40;;;;;;;;;;;;;;;20.85;57.84;97339.81;4212277;28;5815;-71
2022/10/19 12:21:44;;;;;;;;;;;;;;;20.86;57.66;97336.06;4217029;28;5866;-70
2022/10/19 12:23:48;;;;;;;;;;;;;;;20.85;57.34;97325.56;4214013;28;5739;-71
2022/10/19 12:25:53;;;;;;;;;;;;;;;20.82;57.33;97324.16;4210270;28;5751;-71
2022/10/19 12:27:57;;;;;;;;;;;;;;;20.83;57.23;97319.59;4210118;28;5709;-75
2022/10/19 12:30:06;;;;;;;;;;;;;;;20.81;57.30;97317.16;4217239;28;5671;-72
2022/10/19 12:32:13;;;;;;;;;;;;;;;20.80;56.92;97318.22;4210751;28;5682;-70
2022/10/19 12:34:26;;;;;;;;;;;;;;;20.82;57.01;97320.66;4210841;28;5878;-77
2022/10/19 12:36:41;;;;;;;;;;;;;;;20.84;57.13;97319.38;4213155;28;5676;-74
2022/10/19 12:38:53;;;;;;;;;;;;;;;20.87;57.02;97324.25;4210824;28;5722;-78
2022/10/19 12:41:09;;;;;;;;;;;;;;;20.88;56.76;97325.88;4213649;28;5799;-80
2022/10/19 12:43:16;;;;;;;;;;;;;;;20.89;56.40;97324.00;4213801;28;5902;-72
2022/10/19 12:45:27;;;;;;;;;;;;;;;20.89;56.69;97314.06;4207328;28;5797;-75
2022/10/19 12:47:30;;;;;;;;;;;;;;;20.89;56.62;97308.69;4217623;28;6614;-77
2022/10/19 12:49:44;;;;;;;;;;;;;;;20.90;56.37;97310.31;4215887;28;5854;-76
2022/10/19 12:51:47;;;;;;;;;;;;;;;20.91;56.11;97301.19;4206225;28;5765;-79
2022/10/19 12:53:50;;;;;;;;;;;;;;;20.89;56.23;97297.94;4213794;28;5834;-80
2022/10/19 12:55:59;;;;;;;;;;;;;;;20.86;56.42;97293.06;4208643;28;5850;-78
2022/10/19 12:58:05;;;;;;;;;;;;;;;20.84;56.51;97297.88;4213782;28;5810;-79
2022/10/19 13:00:21;;;;;;;;;;;;;;;20.85;56.03;97302.19;4211181;28;5739;-79
2022/10/19 13:02:29;;;;;;;;;;;;;;;20.88;56.20;97306.25;4219719;28;5875;-78
2022/10/19 13:04:36;;;;;;;;;;;;;;;20.89;56.29;97297.94;4213006;28;5085;-84
2022/10/19 13:06:43;;;;;;;;;;;;;;;20.89;56.14;97314.06;4214583;28;5771;-83
2022/10/19 13:08:55;;;;;;;;;;;;;;;20.92;56.38;97302.81;4213119;28;5676;-80
2022/10/19 13:11:04;;;;;;;;;;;;;;;20.94;56.43;97297.19;4218439;28;5662;-84
2022/10/19 13:13:45;;;;;;;;;;;;;;;20.94;56.55;97300.69;4219910;28;5831;-82
2022/10/19 13:15:51;;;;;;;;;;;;;;;20.94;56.54;97291.81;4210637;28;5839;-78
2022/10/19 13:17:53;;;;;;;;;;;;;;;20.90;56.53;97286.13;4222787;28;5835;-80
2022/10/19 13:20:32;;;;;;;;;;;;;;;20.87;56.71;97285.81;4214391;28;5851;-76
2022/10/19 13:22:36;;;;;;;;;;;;;;;20.89;56.48;97281.81;4216701;28;6397;-84
2022/10/19 13:24:40;;;;;;;;;;;;;;;20.89;56.85;97276.44;4212367;28;5858;-86
2022/10/19 13:26:48;;;;;;;;;;;;;;;20.89;56.47;97275.63;4214637;28;5658;-86
2022/10/19 13:28:55;;;;;;;;;;;;;;;20.89;56.77;97273.75;4205641;28;5785;-84
2022/10/19 13:31:04;;;;;;;;;;;;;;;20.90;56.92;97267.31;4207891;28;7004;-77
2022/10/19 13:33:44;;;;;;;;;;;;;;;20.91;57.10;97263.56;4211840;28;5803;-77
2022/10/19 13:35:47;;;;;;;;;;;;;;;20.90;57.17;97256.56;4159736;28;5835;-77
2022/10/19 13:38:25;;;;;;;;;;;;;;;20.89;57.07;97256.81;4160302;28;5858;-77
2022/10/19 13:40:28;;;;;;;;;;;;;;;20.88;57.13;97257.88;4161822;28;5978;-78
2022/10/19 13:42:32;;;;;;;;;;;;;;;20.90;57.71;97261.94;4144558;28;5898;-77
2022/10/19 13:44:38;;;;;;;;;;;;;;;20.91;57.70;97263.56;4160812;28;5818;-74
2022/10/19 13:46:54;;;;;;;;;;;;;;;20.96;57.57;97259.34;4142233;28;6609;-75
2022/10/19 13:49:25;;;;;;;;;;;;;;;21.01;57.52;97262.09;4161879;28;5917;-69
2022/10/19 13:51:42;;;;;;;;;;;;;;;21.05;57.60;97265.88;4157955;28;5864;-71
2022/10/19 13:54:22;;;;;;;;;;;;;;;21.07;57.84;97261.91;4160825;28;5800;-70
2022/10/19 13:56:45;;;;;;;;;;;;;;;21.09;57.41;97253.59;4159680;28;5778;-74
2022/10/19 13:59:21;;;;;;;;;;;;;;;21.11;57.56;97256.84;4163776;28;5846;-74
2022/10/19 14:01:38;;;;;;;;;;;;;;;21.14;57.74;97257.16;4162691;28;5909;-69
2022/10/19 14:04:03;;;;;;;;;;;;;;;21.17;57.68;97256.66;4164921;28;5824;-70
2022/10/19 14:06:24;;;;;;;;;;;;;;;21.20;57.86;97255.34;4163630;28;5764;-69
2022/10/19 14:08:59;;;;;;;;;;;;;;;21.23;57.99;97249.47;4162441;28;5916;-71
2022/10/19 14:11:06;;;;;;;;;;;;;;;21.23;58.05;97249.47;4170410;28;6068;-69
2022/10/19 14:13:13;;;;;;;;;;;;;;;21.23;58.04;97252.16;4211187;28;7062;-70
2022/10/19 14:15:22;;;;;;;;;;;;;;;21.25;58.41;97250.03;4206928;28;5884;-70
2022/10/19 14:17:32;;;;;;;;;;;;;;;21.25;58.56;97247.34;4210040;28;5777;-71
2022/10/19 14:19:42;;;;;;;;;;;;;;;21.26;58.68;97242.81;4215014;28;5751;-69
2022/10/19 14:21:45;;;;;;;;;;;;;;;21.25;58.51;97233.09;4213752;28;5694;-69
2022/10/19 14:23:50;;;;;;;;;;;;;;;21.23;58.37;97234.16;4216047;28;5787;-68
2022/10/19 14:25:57;;;;;;;;;;;;;;;21.24;58.71;97229.59;4214266;28;5668;-74
2022/10/19 14:28:05;;;;;;;;;;;;;;;21.26;58.59;97230.19;4212922;28;5672;-72
2022/10/19 14:30:21;;;;;;;;;;;;;;;21.27;58.48;97218.34;4215024;28;5661;-71
2022/10/19 14:32:26;;;;;;;;;;;;;;;21.27;58.56;97220.22;4213133;28;5846;-72
2022/10/19 14:34:29;;;;;;;;;;;;;;;21.25;59.04;97209.69;4215541;28;5883;-73
2022/10/19 14:36:36;;;;;;;;;;;;;;;21.24;58.70;97213.47;4212236;28;5806;-77
2022/10/19 14:38:42;;;;;;;;;;;;;;;21.22;58.92;97211.03;4213869;28;5683;-73
2022/10/19 14:40:45;;;;;;;;;;;;;;;21.26;58.99;97210.53;4213087;28;6361;-69
2022/10/19 14:42:48;;;;;;;;;;;;;;;21.25;59.26;97220.44;4216674;28;5672;-70
2022/10/19 14:44:54;;;;;;;;;;;;;;;21.28;59.14;97221.84;4213507;28;5763;-71
2022/10/19 14:47:00;;;;;;;;;;;;;;;21.26;59.39;97219.41;4218038;28;5763;-76
2022/10/19 14:49:05;;;;;;;;;;;;;;;21.26;59.13;97224.78;4214469;28;5787;-71
2022/10/19 14:51:17;;;;;;;;;;;;;;;21.25;59.29;97228.53;4205483;28;5747;-70
2022/10/19 14:53:33;;;;;;;;;;;;;;;21.23;59.14;97227.97;4204580;28;6363;-69
2022/10/19 14:55:40;;;;;;;;;;;;;;;21.22;59.34;97223.66;4215805;28;5928;-70
2022/10/19 14:57:46;;;;;;;;;;;;;;;21.20;59.16;97223.91;4211311;28;7801;-68
2022/10/19 14:59:52;;;;;;;;;;;;;;;21.16;59.38;97224.63;4213517;28;5672;-70
2022/10/19 15:01:59;;;;;;;;;;;;;;;21.14;59.81;97216.00;4212436;28;5812;-70
2022/10/19 15:04:03;;;;;;;;;;;;;;;21.12;59.84;97220.84;4211623;28;5771;-70
2022/10/19 15:06:07;;;;;;;;;;;;;;;21.11;59.84;97213.84;4206470;28;6555;-70
2022/10/19 15:08:19;;;;;;;;;;;;;;;21.08;59.96;97207.09;4202653;28;5803;-71
2022/10/19 15:10:26;;;;;;;;;;;;;;;21.05;59.97;97202.19;4212587;28;5688;-71
2022/10/19 15:12:37;;;;;;;;;;;;;;;21.03;59.80;97207.00;4210024;28;5675;-71
2022/10/19 15:14:40;;;;;;;;;;;;;;;21.02;60.19;97199.19;4210299;28;5810;-71
2022/10/19 15:16:46;;;;;;;;;;;;;;;20.98;60.04;97215.03;4207813;28;5792;-72
2022/10/19 15:18:51;;;;;;;;;;;;;;;20.94;60.26;97219.25;4215364;28;5351;-71
2022/10/19 15:21:02;;;;;;;;;;;;;;;20.90;60.14;97210.88;4210506;28;5701;-73
2022/10/19 15:23:38;;;;;;;;;;;;;;;20.90;60.46;97224.31;4212600;28;5785;-72
2022/10/19 15:25:40;;;;;;;;;;;;;;;20.92;60.54;97206.06;4213309;28;5853;-68
2022/10/19 15:27:46;;;;;;;;;;;;;;;20.92;60.41;97200.69;4211210;28;5917;-69
2022/10/19 15:29:55;;;;;;;;;;;;;;;20.92;60.49;97189.94;4211138;28;5750;-72
2022/10/19 15:32:13;;;;;;;;;;;;;;;20.93;60.53;97196.13;4212944;28;5716;-68
2022/10/19 15:34:24;;;;;;;;;;;;;;;20.93;60.59;97191.56;4215484;28;6352;-64
2022/10/19 15:36:29;;;;;;;;;;;;;;;20.93;60.63;97191.56;4206817;28;5675;-75
2022/10/19 15:38:33;;;;;;;;;;;;;;;20.93;60.94;97183.50;4215601;28;6380;-73
2022/10/19 15:40:40;;;;;;;;;;;;;;;20.94;60.70;97182.44;4214455;28;5755;-67
2022/10/19 15:42:45;;;;;;;;;;;;;;;20.96;60.70;97178.72;4215239;28;5910;-68
2022/10/19 15:44:48;;;;;;;;;;;;;;;20.94;61.04;97177.06;4213781;28;7813;-68
2022/10/19 15:47:18;;;;;;;;;;;;;;;20.93;61.06;97175.44;4217752;28;5672;-68
2022/10/19 15:49:53;;;;;;;;;;;;;;;20.94;61.18;97181.63;4210659;28;5693;-68
2022/10/19 15:51:55;;;;;;;;;;;;;;;20.92;60.90;97184.56;4210526;28;5811;-69
2022/10/19 15:54:00;;;;;;;;;;;;;;;20.91;61.30;97182.13;4215314;28;5672;-69
2022/10/19 15:56:03;;;;;;;;;;;;;;;20.88;61.05;97177.25;4205855;28;6981;-69
2022/10/19 15:58:12;;;;;;;;;;;;;;;20.84;61.12;97178.84;4207357;28;5855;-69
2022/10/19 16:00:19;;;;;;;;;;;;;;;20.85;61.21;97183.97;4211082;28;5913;-69
2022/10/19 16:02:23;;;;;;;;;;;;;;;20.85;61.55;97191.22;4211801;28;5890;-67
2022/10/19 16:04:26;;;;;;;;;;;;;;;20.85;61.37;97191.22;4205211;28;6192;-69
2022/10/19 16:06:32;;;;;;;;;;;;;;;20.86;61.59;97184.75;4208946;28;5649;-70
2022/10/19 16:08:35;;;;;;;;;;;;;;;20.86;61.29;97184.75;4209555;28;5858;-69
2022/10/19 16:10:38;;;;;;;;;;;;;;;20.85;61.19;97192.00;4209419;28;5956;-69
2022/10/19 16:12:41;;;;;;;;;;;;;;;20.84;61.20;97189.59;4206978;28;5791;-70
2022/10/19 16:14:44;;;;;;;;;;;;;;;20.83;61.55;97191.44;4207263;28;5751;-70
2022/10/19 16:16:49;;;;;;;;;;;;;;;20.81;61.55;97190.06;4211654;28;5671;-70
2022/10/19 16:18:53;;;;;;;;;;;;;;;20.80;61.58;97188.44;4209745;28;5684;-69
2022/10/19 16:20:56;;;;;;;;;;;;;;;20.78;61.32;97186.00;4207245;28;5849;-70
2022/10/19 16:23:01;;;;;;;;;;;;;;;20.77;61.65;97187.06;4210339;28;5676;-70
2022/10/19 16:25:04;;;;;;;;;;;;;;;20.74;61.72;97182.19;4208196;28;5747;-70
2022/10/19 16:27:08;;;;;;;;;;;;;;;20.73;61.64;97185.94;4207627;28;5671;-68
2022/10/19 16:29:11;;;;;;;;;;;;;;;20.73;61.64;97180.56;4208564;28;5690;-76
2022/10/19 16:31:15;;;;;;;;;;;;;;;20.70;61.79;97178.34;4205967;28;5832;-75
2022/10/19 16:33:18;;;;;;;;;;;;;;;20.67;61.85;97181.56;4204548;28;6659;-75
2022/10/19 16:35:21;;;;;;;;;;;;;;;20.66;61.76;97179.94;4213245;28;5873;-74
2022/10/19 16:37:23;;;;;;;;;;;;;;;20.64;62.13;97176.69;4215170;28;5805;-74
2022/10/19 16:39:28;;;;;;;;;;;;;;;20.63;61.59;97180.44;4209307;28;5864;-75
2022/10/19 16:41:31;;;;;;;;;;;;;;;20.60;61.94;97183.59;4217999;28;5783;-72
2022/10/19 16:43:34;;;;;;;;;;;;;;;20.56;61.94;97175.22;4208801;28;5712;-72
2022/10/19 16:45:42;;;;;;;;;;;;;;;20.57;62.20;97181.41;4205391;28;5802;-73
2022/10/19 16:47:44;;;;;;;;;;;;;;;20.56;62.21;97180.59;4210768;28;5664;-71
2022/10/19 16:49:47;;;;;;;;;;;;;;;20.57;62.02;97192.16;4203779;28;5755;-74
2022/10/19 16:51:50;;;;;;;;;;;;;;;20.55;62.07;97195.09;4209238;28;7427;-74
2022/10/19 16:53:59;;;;;;;;;;;;;;;20.57;62.15;97205.56;4206732;28;5815;-70